sensor_id;sensor_type;location;lat;lon;timestamp;temperature;humidity
31133;DHT22;17779;50.942;4.026;2024-02-21T00:01:47;9.60;99.90
31133;DHT22;17779;50.942;4.026;2024-02-21T00:04:12;9.60;99.90
31133;DHT22;17779;50.942;4.026;2024-02-21T00:06:38;9.60;99.90
31133;DHT22;17779;50.942;4.026;2024-02-21T00:09:03;9.60;99.90
31133;DHT22;17779;50.942;4.026;2024-02-21T00:11:30;9.60;99.90
31133;DHT22;17779;50.942;4.026;2024-02-21T00:13:56;9.60;99.90
31133;DHT22;17779;50.942;4.026;2024-02-21T00:16:21;9.70;99.90
31133;DHT22;17779;50.942;4.026;2024-02-21T00:18:48;9.70;99.90
31133;DHT22;17779;50.942;4.026;2024-02-21T00:21:14;9.80;99.90
31133;DHT22;17779;50.942;4.026;2024-02-21T00:23:43;9.70;99.90
31133;DHT22;17779;50.942;4.026;2024-02-21T00:26:11;9.70;99.90
31133;DHT22;17779;50.942;4.026;2024-02-21T00:28:37;9.60;99.90
31133;DHT22;17779;50.942;4.026;2024-02-21T00:31:03;9.70;99.90
31133;DHT22;17779;50.942;4.026;2024-02-21T00:33:29;9.60;99.90
31133;DHT22;17779;50.942;4.026;2024-02-21T00:35:54;9.70;99.90
31133;DHT22;17779;50.942;4.026;2024-02-21T00:38:20;9.70;99.90
31133;DHT22;17779;50.942;4.026;2024-02-21T00:40:46;9.70;99.90
31133;DHT22;17779;50.942;4.026;2024-02-21T00:43:11;9.60;99.90
31133;DHT22;17779;50.942;4.026;2024-02-21T00:45:37;9.60;99.90
31133;DHT22;17779;50.942;4.026;2024-02-21T00:48:02;9.50;99.90
31133;DHT22;17779;50.942;4.026;2024-02-21T00:50:29;9.50;99.90
31133;DHT22;17779;50.942;4.026;2024-02-21T00:52:55;9.60;99.90
31133;DHT22;17779;50.942;4.026;2024-02-21T00:55:20;9.60;99.90
31133;DHT22;17779;50.942;4.026;2024-02-21T00:57:46;9.50;99.90
31133;DHT22;17779;50.942;4.026;2024-02-21T01:00:12;9.50;99.90
31133;DHT22;17779;50.942;4.026;2024-02-21T01:02:37;9.40;99.90
31133;DHT22;17779;50.942;4.026;2024-02-21T01:05:03;9.30;99.90
31133;DHT22;17779;50.942;4.026;2024-02-21T01:07:29;9.20;99.90
31133;DHT22;17779;50.942;4.026;2024-02-21T01:09:54;9.20;99.90
31133;DHT22;17779;50.942;4.026;2024-02-21T01:12:20;9.10;99.90
31133;DHT22;17779;50.942;4.026;2024-02-21T01:14:46;9.10;99.90
31133;DHT22;17779;50.942;4.026;2024-02-21T01:17:12;9.00;99.90
31133;DHT22;17779;50.942;4.026;2024-02-21T01:19:37;8.90;99.90
31133;DHT22;17779;50.942;4.026;2024-02-21T01:22:04;8.70;99.90
31133;DHT22;17779;50.942;4.026;2024-02-21T01:24:29;8.70;99.90
31133;DHT22;17779;50.942;4.026;2024-02-21T01:26:55;8.70;99.90
31133;DHT22;17779;50.942;4.026;2024-02-21T01:29:20;8.70;99.90
31133;DHT22;17779;50.942;4.026;2024-02-21T01:31:46;8.80;99.90
31133;DHT22;17779;50.942;4.026;2024-02-21T01:34:13;8.70;99.90
31133;DHT22;17779;50.942;4.026;2024-02-21T01:36:38;8.80;99.90
31133;DHT22;17779;50.942;4.026;2024-02-21T01:39:04;8.90;99.90
31133;DHT22;17779;50.942;4.026;2024-02-21T01:41:30;8.90;99.90
31133;DHT22;17779;50.942;4.026;2024-02-21T01:43:56;9.00;99.90
31133;DHT22;17779;50.942;4.026;2024-02-21T01:46:22;8.90;99.90
31133;DHT22;17779;50.942;4.026;2024-02-21T01:48:47;8.80;99.90
31133;DHT22;17779;50.942;4.026;2024-02-21T01:51:13;8.80;99.90
31133;DHT22;17779;50.942;4.026;2024-02-21T01:53:40;8.70;99.90
31133;DHT22;17779;50.942;4.026;2024-02-21T01:56:07;8.70;99.90
31133;DHT22;17779;50.942;4.026;2024-02-21T01:58:35;8.70;99.90
31133;DHT22;17779;50.942;4.026;2024-02-21T02:01:02;8.70;99.90
31133;DHT22;17779;50.942;4.026;2024-02-21T02:03:29;8.80;99.90
31133;DHT22;17779;50.942;4.026;2024-02-21T02:05:55;8.80;99.90
31133;DHT22;17779;50.942;4.026;2024-02-21T02:08:21;8.70;99.90
31133;DHT22;17779;50.942;4.026;2024-02-21T02:10:49;8.70;99.90
31133;DHT22;17779;50.942;4.026;2024-02-21T02:13:15;8.70;99.90
31133;DHT22;17779;50.942;4.026;2024-02-21T02:15:44;8.80;99.90
31133;DHT22;17779;50.942;4.026;2024-02-21T02:18:10;8.80;99.90
31133;DHT22;17779;50.942;4.026;2024-02-21T02:20:36;8.80;99.90
31133;DHT22;17779;50.942;4.026;2024-02-21T02:23:12;8.90;99.90
31133;DHT22;17779;50.942;4.026;2024-02-21T02:25:38;8.80;99.90
31133;DHT22;17779;50.942;4.026;2024-02-21T02:28:05;8.80;99.90
31133;DHT22;17779;50.942;4.026;2024-02-21T02:30:34;8.70;99.90
31133;DHT22;17779;50.942;4.026;2024-02-21T02:33:02;8.70;99.90
31133;DHT22;17779;50.942;4.026;2024-02-21T02:35:28;8.70;99.90
31133;DHT22;17779;50.942;4.026;2024-02-21T02:37:54;8.90;99.90
31133;DHT22;17779;50.942;4.026;2024-02-21T02:40:20;8.90;99.90
31133;DHT22;17779;50.942;4.026;2024-02-21T02:42:45;8.90;99.90
31133;DHT22;17779;50.942;4.026;2024-02-21T02:45:11;9.00;99.90
31133;DHT22;17779;50.942;4.026;2024-02-21T02:47:36;9.00;99.90
31133;DHT22;17779;50.942;4.026;2024-02-21T02:50:02;9.00;99.90
31133;DHT22;17779;50.942;4.026;2024-02-21T02:52:28;8.90;99.90
31133;DHT22;17779;50.942;4.026;2024-02-21T02:54:53;8.90;99.90
31133;DHT22;17779;50.942;4.026;2024-02-21T02:57:21;8.80;99.90
31133;DHT22;17779;50.942;4.026;2024-02-21T02:59:47;8.80;99.90
31133;DHT22;17779;50.942;4.026;2024-02-21T03:02:13;8.80;99.90
31133;DHT22;17779;50.942;4.026;2024-02-21T03:04:42;8.70;99.90
31133;DHT22;17779;50.942;4.026;2024-02-21T03:07:07;8.70;99.90
31133;DHT22;17779;50.942;4.026;2024-02-21T03:09:33;8.70;99.90
31133;DHT22;17779;50.942;4.026;2024-02-21T03:11:59;8.70;99.90
31133;DHT22;17779;50.942;4.026;2024-02-21T03:14:31;8.80;99.90
31133;DHT22;17779;50.942;4.026;2024-02-21T03:16:57;8.80;99.90
31133;DHT22;17779;50.942;4.026;2024-02-21T03:19:23;8.70;99.90
31133;DHT22;17779;50.942;4.026;2024-02-21T03:21:49;8.80;99.90
31133;DHT22;17779;50.942;4.026;2024-02-21T03:24:15;8.90;99.90
31133;DHT22;17779;50.942;4.026;2024-02-21T03:26:41;8.90;99.90
31133;DHT22;17779;50.942;4.026;2024-02-21T03:29:07;8.90;99.90
31133;DHT22;17779;50.942;4.026;2024-02-21T03:31:33;8.90;99.90
31133;DHT22;17779;50.942;4.026;2024-02-21T03:33:58;8.80;99.90
31133;DHT22;17779;50.942;4.026;2024-02-21T03:36:24;8.80;99.90
31133;DHT22;17779;50.942;4.026;2024-02-21T03:38:50;8.80;99.90
31133;DHT22;17779;50.942;4.026;2024-02-21T03:41:15;8.80;99.90
31133;DHT22;17779;50.942;4.026;2024-02-21T03:43:41;8.80;99.90
31133;DHT22;17779;50.942;4.026;2024-02-21T03:46:07;8.80;99.90
31133;DHT22;17779;50.942;4.026;2024-02-21T03:48:32;8.70;99.90
31133;DHT22;17779;50.942;4.026;2024-02-21T03:50:58;8.70;99.90
31133;DHT22;17779;50.942;4.026;2024-02-21T03:53:23;8.60;99.90
31133;DHT22;17779;50.942;4.026;2024-02-21T03:55:49;8.70;99.90
31133;DHT22;17779;50.942;4.026;2024-02-21T03:58:15;8.70;99.90
31133;DHT22;17779;50.942;4.026;2024-02-21T04:00:40;8.60;99.90
31133;DHT22;17779;50.942;4.026;2024-02-21T04:03:06;8.70;99.90
31133;DHT22;17779;50.942;4.026;2024-02-21T04:05:32;8.70;99.90
31133;DHT22;17779;50.942;4.026;2024-02-21T04:07:58;8.70;99.90
31133;DHT22;17779;50.942;4.026;2024-02-21T04:10:24;8.70;99.90
31133;DHT22;17779;50.942;4.026;2024-02-21T04:12:49;8.80;99.90
31133;DHT22;17779;50.942;4.026;2024-02-21T04:15:18;8.90;99.90
31133;DHT22;17779;50.942;4.026;2024-02-21T04:17:44;8.80;99.90
31133;DHT22;17779;50.942;4.026;2024-02-21T04:20:13;8.80;99.90
31133;DHT22;17779;50.942;4.026;2024-02-21T04:22:40;8.80;99.90
31133;DHT22;17779;50.942;4.026;2024-02-21T04:25:06;8.80;99.90
31133;DHT22;17779;50.942;4.026;2024-02-21T04:27:32;8.70;99.90
31133;DHT22;17779;50.942;4.026;2024-02-21T04:29:57;8.80;99.90
31133;DHT22;17779;50.942;4.026;2024-02-21T04:32:23;8.80;99.90
31133;DHT22;17779;50.942;4.026;2024-02-21T04:34:49;8.90;99.90
31133;DHT22;17779;50.942;4.026;2024-02-21T04:37:14;8.80;99.90
31133;DHT22;17779;50.942;4.026;2024-02-21T04:39:40;8.80;99.90
31133;DHT22;17779;50.942;4.026;2024-02-21T04:42:06;8.80;99.90
31133;DHT22;17779;50.942;4.026;2024-02-21T04:44:31;8.70;99.90
31133;DHT22;17779;50.942;4.026;2024-02-21T04:46:57;8.70;99.90
31133;DHT22;17779;50.942;4.026;2024-02-21T04:49:22;8.80;99.90
31133;DHT22;17779;50.942;4.026;2024-02-21T04:51:48;8.90;99.90
31133;DHT22;17779;50.942;4.026;2024-02-21T04:54:14;8.90;99.90
31133;DHT22;17779;50.942;4.026;2024-02-21T04:56:39;8.90;99.90
31133;DHT22;17779;50.942;4.026;2024-02-21T04:59:05;8.80;99.90
31133;DHT22;17779;50.942;4.026;2024-02-21T05:01:31;8.80;99.90
31133;DHT22;17779;50.942;4.026;2024-02-21T05:03:56;8.90;99.90
31133;DHT22;17779;50.942;4.026;2024-02-21T05:06:22;8.80;99.90
31133;DHT22;17779;50.942;4.026;2024-02-21T05:08:47;8.90;99.90
31133;DHT22;17779;50.942;4.026;2024-02-21T05:11:13;8.90;99.90
31133;DHT22;17779;50.942;4.026;2024-02-21T05:13:39;8.90;99.90
31133;DHT22;17779;50.942;4.026;2024-02-21T05:16:05;8.90;99.90
31133;DHT22;17779;50.942;4.026;2024-02-21T05:18:30;8.80;99.90
31133;DHT22;17779;50.942;4.026;2024-02-21T05:20:56;8.90;99.90
31133;DHT22;17779;50.942;4.026;2024-02-21T05:23:22;8.80;99.90
31133;DHT22;17779;50.942;4.026;2024-02-21T05:25:47;8.80;99.90
31133;DHT22;17779;50.942;4.026;2024-02-21T05:28:13;8.80;99.90
31133;DHT22;17779;50.942;4.026;2024-02-21T05:30:38;8.90;99.90
31133;DHT22;17779;50.942;4.026;2024-02-21T05:33:07;8.90;99.90
31133;DHT22;17779;50.942;4.026;2024-02-21T05:35:34;8.90;99.90
31133;DHT22;17779;50.942;4.026;2024-02-21T05:38:00;8.90;99.90
31133;DHT22;17779;50.942;4.026;2024-02-21T05:40:26;8.90;99.90
31133;DHT22;17779;50.942;4.026;2024-02-21T05:42:51;9.00;99.90
31133;DHT22;17779;50.942;4.026;2024-02-21T05:45:18;9.00;99.90
31133;DHT22;17779;50.942;4.026;2024-02-21T05:47:43;8.90;99.90
31133;DHT22;17779;50.942;4.026;2024-02-21T05:50:09;8.90;99.90
31133;DHT22;17779;50.942;4.026;2024-02-21T05:52:35;8.90;99.90
31133;DHT22;17779;50.942;4.026;2024-02-21T05:55:01;8.90;99.90
31133;DHT22;17779;50.942;4.026;2024-02-21T05:57:26;8.90;99.90
31133;DHT22;17779;50.942;4.026;2024-02-21T05:59:52;8.90;99.90
31133;DHT22;17779;50.942;4.026;2024-02-21T06:02:18;8.90;99.90
31133;DHT22;17779;50.942;4.026;2024-02-21T06:04:43;9.00;99.90
31133;DHT22;17779;50.942;4.026;2024-02-21T06:07:09;9.00;99.90
31133;DHT22;17779;50.942;4.026;2024-02-21T06:09:35;9.10;99.90
31133;DHT22;17779;50.942;4.026;2024-02-21T06:12:01;9.00;99.90
31133;DHT22;17779;50.942;4.026;2024-02-21T06:14:26;9.00;99.90
31133;DHT22;17779;50.942;4.026;2024-02-21T06:16:54;9.10;99.90
31133;DHT22;17779;50.942;4.026;2024-02-21T06:19:19;9.10;99.90
31133;DHT22;17779;50.942;4.026;2024-02-21T06:21:45;9.10;99.90
31133;DHT22;17779;50.942;4.026;2024-02-21T06:24:11;9.10;99.90
31133;DHT22;17779;50.942;4.026;2024-02-21T06:26:38;9.10;99.90
31133;DHT22;17779;50.942;4.026;2024-02-21T06:29:06;9.20;99.90
31133;DHT22;17779;50.942;4.026;2024-02-21T06:31:32;9.20;99.90
31133;DHT22;17779;50.942;4.026;2024-02-21T06:33:57;9.10;99.90
31133;DHT22;17779;50.942;4.026;2024-02-21T06:36:24;9.10;99.90
31133;DHT22;17779;50.942;4.026;2024-02-21T06:38:50;9.00;99.90
31133;DHT22;17779;50.942;4.026;2024-02-21T06:41:16;9.10;99.90
31133;DHT22;17779;50.942;4.026;2024-02-21T06:43:42;9.10;99.90
31133;DHT22;17779;50.942;4.026;2024-02-21T06:46:08;9.10;99.90
31133;DHT22;17779;50.942;4.026;2024-02-21T06:48:34;9.10;99.90
31133;DHT22;17779;50.942;4.026;2024-02-21T06:51:00;9.10;99.90
31133;DHT22;17779;50.942;4.026;2024-02-21T06:53:25;9.10;99.90
31133;DHT22;17779;50.942;4.026;2024-02-21T06:55:51;9.10;99.90
31133;DHT22;17779;50.942;4.026;2024-02-21T06:58:16;9.10;99.90
31133;DHT22;17779;50.942;4.026;2024-02-21T07:00:43;9.20;99.90
31133;DHT22;17779;50.942;4.026;2024-02-21T07:03:09;9.20;99.90
31133;DHT22;17779;50.942;4.026;2024-02-21T07:05:34;9.20;99.90
31133;DHT22;17779;50.942;4.026;2024-02-21T07:08:00;9.10;99.90
31133;DHT22;17779;50.942;4.026;2024-02-21T07:10:25;9.20;99.90
31133;DHT22;17779;50.942;4.026;2024-02-21T07:12:53;9.30;99.90
31133;DHT22;17779;50.942;4.026;2024-02-21T07:15:19;9.20;99.90
31133;DHT22;17779;50.942;4.026;2024-02-21T07:17:46;9.20;99.90
31133;DHT22;17779;50.942;4.026;2024-02-21T07:20:12;9.20;99.90
31133;DHT22;17779;50.942;4.026;2024-02-21T07:22:38;9.20;99.90
31133;DHT22;17779;50.942;4.026;2024-02-21T07:25:04;9.20;99.90
31133;DHT22;17779;50.942;4.026;2024-02-21T07:27:30;9.20;99.90
31133;DHT22;17779;50.942;4.026;2024-02-21T07:29:57;9.30;99.90
31133;DHT22;17779;50.942;4.026;2024-02-21T07:32:23;9.40;99.90
31133;DHT22;17779;50.942;4.026;2024-02-21T07:34:49;9.30;99.90
31133;DHT22;17779;50.942;4.026;2024-02-21T07:37:15;9.30;99.90
31133;DHT22;17779;50.942;4.026;2024-02-21T07:39:41;9.20;99.90
31133;DHT22;17779;50.942;4.026;2024-02-21T07:42:07;9.20;99.90
31133;DHT22;17779;50.942;4.026;2024-02-21T07:44:33;9.20;99.90
31133;DHT22;17779;50.942;4.026;2024-02-21T07:49:29;9.20;99.90
31133;DHT22;17779;50.942;4.026;2024-02-21T07:51:56;9.20;99.90
31133;DHT22;17779;50.942;4.026;2024-02-21T07:54:22;9.20;99.90
31133;DHT22;17779;50.942;4.026;2024-02-21T07:56:48;9.30;99.90
31133;DHT22;17779;50.942;4.026;2024-02-21T08:01:47;9.20;99.90
31133;DHT22;17779;50.942;4.026;2024-02-21T08:04:12;9.20;99.90
31133;DHT22;17779;50.942;4.026;2024-02-21T08:06:38;9.20;99.90
31133;DHT22;17779;50.942;4.026;2024-02-21T08:09:04;9.30;99.90
31133;DHT22;17779;50.942;4.026;2024-02-21T08:11:29;9.20;99.90
31133;DHT22;17779;50.942;4.026;2024-02-21T08:13:56;9.30;99.90
31133;DHT22;17779;50.942;4.026;2024-02-21T08:16:23;9.20;99.90
31133;DHT22;17779;50.942;4.026;2024-02-21T08:18:49;9.20;99.90
31133;DHT22;17779;50.942;4.026;2024-02-21T08:21:14;9.10;99.90
31133;DHT22;17779;50.942;4.026;2024-02-21T08:23:40;9.20;99.90
31133;DHT22;17779;50.942;4.026;2024-02-21T08:26:06;9.20;99.90
31133;DHT22;17779;50.942;4.026;2024-02-21T08:28:33;9.20;99.90
31133;DHT22;17779;50.942;4.026;2024-02-21T08:31:00;9.40;99.90
31133;DHT22;17779;50.942;4.026;2024-02-21T08:33:25;9.40;99.90
31133;DHT22;17779;50.942;4.026;2024-02-21T08:35:54;9.30;99.90
31133;DHT22;17779;50.942;4.026;2024-02-21T08:38:19;9.30;99.90
31133;DHT22;17779;50.942;4.026;2024-02-21T08:40:45;9.30;99.90
31133;DHT22;17779;50.942;4.026;2024-02-21T08:43:10;9.30;99.90
31133;DHT22;17779;50.942;4.026;2024-02-21T08:45:37;9.40;99.90
31133;DHT22;17779;50.942;4.026;2024-02-21T08:48:03;9.30;99.90
31133;DHT22;17779;50.942;4.026;2024-02-21T08:50:29;9.30;99.90
31133;DHT22;17779;50.942;4.026;2024-02-21T08:52:55;9.30;99.90
31133;DHT22;17779;50.942;4.026;2024-02-21T08:55:20;9.30;99.90
31133;DHT22;17779;50.942;4.026;2024-02-21T08:57:46;9.30;99.90
31133;DHT22;17779;50.942;4.026;2024-02-21T09:00:12;9.30;99.90
31133;DHT22;17779;50.942;4.026;2024-02-21T09:02:42;9.30;99.90
31133;DHT22;17779;50.942;4.026;2024-02-21T09:05:08;9.40;99.90
31133;DHT22;17779;50.942;4.026;2024-02-21T09:07:34;9.30;99.90
31133;DHT22;17779;50.942;4.026;2024-02-21T09:10:00;9.40;99.90
31133;DHT22;17779;50.942;4.026;2024-02-21T09:12:28;9.50;99.90
31133;DHT22;17779;50.942;4.026;2024-02-21T09:14:56;9.40;99.90
31133;DHT22;17779;50.942;4.026;2024-02-21T09:17:23;9.40;99.90
31133;DHT22;17779;50.942;4.026;2024-02-21T09:19:50;9.50;99.90
31133;DHT22;17779;50.942;4.026;2024-02-21T09:22:16;9.50;99.90
31133;DHT22;17779;50.942;4.026;2024-02-21T09:24:43;9.50;99.90
31133;DHT22;17779;50.942;4.026;2024-02-21T09:27:08;9.60;99.90
31133;DHT22;17779;50.942;4.026;2024-02-21T09:29:34;9.60;99.90
31133;DHT22;17779;50.942;4.026;2024-02-21T09:32:00;9.60;99.90
31133;DHT22;17779;50.942;4.026;2024-02-21T09:34:25;9.70;99.90
31133;DHT22;17779;50.942;4.026;2024-02-21T09:36:53;9.90;99.90
31133;DHT22;17779;50.942;4.026;2024-02-21T09:39:19;9.80;99.90
31133;DHT22;17779;50.942;4.026;2024-02-21T09:41:47;9.80;99.90
31133;DHT22;17779;50.942;4.026;2024-02-21T09:44:17;9.80;99.90
31133;DHT22;17779;50.942;4.026;2024-02-21T09:46:46;9.80;99.90
31133;DHT22;17779;50.942;4.026;2024-02-21T09:49:29;9.80;99.90
31133;DHT22;17779;50.942;4.026;2024-02-21T09:51:55;10.00;99.90
31133;DHT22;17779;50.942;4.026;2024-02-21T09:54:22;10.00;99.90
31133;DHT22;17779;50.942;4.026;2024-02-21T09:56:47;10.00;99.90
31133;DHT22;17779;50.942;4.026;2024-02-21T09:59:14;10.10;99.90
31133;DHT22;17779;50.942;4.026;2024-02-21T10:01:41;10.10;99.90
31133;DHT22;17779;50.942;4.026;2024-02-21T10:04:07;10.00;99.90
31133;DHT22;17779;50.942;4.026;2024-02-21T10:06:33;10.10;99.90
31133;DHT22;17779;50.942;4.026;2024-02-21T10:08:59;10.10;99.90
31133;DHT22;17779;50.942;4.026;2024-02-21T10:11:26;10.20;99.90
31133;DHT22;17779;50.942;4.026;2024-02-21T10:14:08;10.10;99.90
31133;DHT22;17779;50.942;4.026;2024-02-21T10:16:34;10.00;99.90
31133;DHT22;17779;50.942;4.026;2024-02-21T10:19:00;10.10;99.90
31133;DHT22;17779;50.942;4.026;2024-02-21T10:21:26;10.10;99.90
31133;DHT22;17779;50.942;4.026;2024-02-21T10:23:53;10.10;99.90
31133;DHT22;17779;50.942;4.026;2024-02-21T10:26:19;10.20;99.90
31133;DHT22;17779;50.942;4.026;2024-02-21T10:28:45;10.10;99.90
31133;DHT22;17779;50.942;4.026;2024-02-21T10:31:22;10.10;99.90
31133;DHT22;17779;50.942;4.026;2024-02-21T10:34:09;10.20;99.90
31133;DHT22;17779;50.942;4.026;2024-02-21T10:36:34;10.10;99.90
31133;DHT22;17779;50.942;4.026;2024-02-21T10:39:00;10.10;99.90
31133;DHT22;17779;50.942;4.026;2024-02-21T10:41:26;10.10;99.90
31133;DHT22;17779;50.942;4.026;2024-02-21T10:43:53;10.20;99.90
31133;DHT22;17779;50.942;4.026;2024-02-21T10:46:20;10.10;99.90
31133;DHT22;17779;50.942;4.026;2024-02-21T10:48:47;10.20;99.90
31133;DHT22;17779;50.942;4.026;2024-02-21T10:51:16;10.30;99.90
31133;DHT22;17779;50.942;4.026;2024-02-21T10:53:47;10.40;99.90
31133;DHT22;17779;50.942;4.026;2024-02-21T10:58:48;10.60;99.90
31133;DHT22;17779;50.942;4.026;2024-02-21T11:01:15;10.60;99.90
31133;DHT22;17779;50.942;4.026;2024-02-21T11:03:43;10.60;99.90
31133;DHT22;17779;50.942;4.026;2024-02-21T11:06:10;10.50;99.90
31133;DHT22;17779;50.942;4.026;2024-02-21T11:08:36;10.40;99.90
31133;DHT22;17779;50.942;4.026;2024-02-21T11:11:02;10.40;99.90
31133;DHT22;17779;50.942;4.026;2024-02-21T11:13:30;10.40;99.90
31133;DHT22;17779;50.942;4.026;2024-02-21T11:16:05;10.50;99.90
31133;DHT22;17779;50.942;4.026;2024-02-21T11:18:30;10.50;99.90
31133;DHT22;17779;50.942;4.026;2024-02-21T11:20:56;10.30;99.90
31133;DHT22;17779;50.942;4.026;2024-02-21T11:23:28;10.30;99.90
31133;DHT22;17779;50.942;4.026;2024-02-21T11:26:03;10.40;99.90
31133;DHT22;17779;50.942;4.026;2024-02-21T11:28:31;10.40;99.90
31133;DHT22;17779;50.942;4.026;2024-02-21T11:31:07;10.30;99.90
31133;DHT22;17779;50.942;4.026;2024-02-21T11:33:34;10.40;99.90
31133;DHT22;17779;50.942;4.026;2024-02-21T11:36:01;10.50;99.90
31133;DHT22;17779;50.942;4.026;2024-02-21T11:38:26;10.40;99.90
31133;DHT22;17779;50.942;4.026;2024-02-21T11:40:52;10.40;99.90
31133;DHT22;17779;50.942;4.026;2024-02-21T11:43:17;10.70;99.90
31133;DHT22;17779;50.942;4.026;2024-02-21T11:45:43;10.70;99.90
31133;DHT22;17779;50.942;4.026;2024-02-21T11:48:09;10.50;99.90
31133;DHT22;17779;50.942;4.026;2024-02-21T11:50:35;10.40;99.90
31133;DHT22;17779;50.942;4.026;2024-02-21T11:53:01;10.50;99.90
31133;DHT22;17779;50.942;4.026;2024-02-21T11:55:29;10.40;99.90
31133;DHT22;17779;50.942;4.026;2024-02-21T11:57:54;10.40;99.90
31133;DHT22;17779;50.942;4.026;2024-02-21T12:00:20;10.30;99.90
31133;DHT22;17779;50.942;4.026;2024-02-21T12:02:46;10.40;99.90
31133;DHT22;17779;50.942;4.026;2024-02-21T12:05:13;10.40;99.90
31133;DHT22;17779;50.942;4.026;2024-02-21T12:07:38;10.40;99.90
31133;DHT22;17779;50.942;4.026;2024-02-21T12:10:10;10.40;99.90
31133;DHT22;17779;50.942;4.026;2024-02-21T12:12:39;10.50;99.90
31133;DHT22;17779;50.942;4.026;2024-02-21T12:15:06;10.50;99.90
31133;DHT22;17779;50.942;4.026;2024-02-21T12:17:35;10.50;99.90
31133;DHT22;17779;50.942;4.026;2024-02-21T12:20:04;10.50;99.90
31133;DHT22;17779;50.942;4.026;2024-02-21T12:22:37;10.50;99.90
31133;DHT22;17779;50.942;4.026;2024-02-21T12:25:03;10.50;99.90
31133;DHT22;17779;50.942;4.026;2024-02-21T12:27:30;10.60;99.90
31133;DHT22;17779;50.942;4.026;2024-02-21T12:29:56;10.60;99.90
31133;DHT22;17779;50.942;4.026;2024-02-21T12:32:21;10.70;99.90
31133;DHT22;17779;50.942;4.026;2024-02-21T12:34:47;10.80;99.90
31133;DHT22;17779;50.942;4.026;2024-02-21T12:37:13;10.80;99.90
31133;DHT22;17779;50.942;4.026;2024-02-21T12:39:38;10.80;99.90
31133;DHT22;17779;50.942;4.026;2024-02-21T12:42:04;10.90;99.90
31133;DHT22;17779;50.942;4.026;2024-02-21T12:44:31;11.00;99.90
31133;DHT22;17779;50.942;4.026;2024-02-21T12:46:57;11.00;99.90
31133;DHT22;17779;50.942;4.026;2024-02-21T12:49:22;11.00;99.90
31133;DHT22;17779;50.942;4.026;2024-02-21T12:51:49;11.00;99.90
31133;DHT22;17779;50.942;4.026;2024-02-21T12:54:15;10.90;99.90
31133;DHT22;17779;50.942;4.026;2024-02-21T12:56:40;11.00;99.90
31133;DHT22;17779;50.942;4.026;2024-02-21T12:59:07;11.10;99.90
31133;DHT22;17779;50.942;4.026;2024-02-21T13:01:34;11.10;99.90
31133;DHT22;17779;50.942;4.026;2024-02-21T13:04:00;11.20;99.90
31133;DHT22;17779;50.942;4.026;2024-02-21T13:06:26;11.10;99.90
31133;DHT22;17779;50.942;4.026;2024-02-21T13:08:51;11.00;99.90
31133;DHT22;17779;50.942;4.026;2024-02-21T13:11:17;10.90;99.90
31133;DHT22;17779;50.942;4.026;2024-02-21T13:13:43;11.00;99.90
31133;DHT22;17779;50.942;4.026;2024-02-21T13:16:09;11.20;99.90
31133;DHT22;17779;50.942;4.026;2024-02-21T13:18:35;11.10;99.90
31133;DHT22;17779;50.942;4.026;2024-02-21T13:21:04;11.10;99.90
31133;DHT22;17779;50.942;4.026;2024-02-21T13:23:29;11.10;99.90
31133;DHT22;17779;50.942;4.026;2024-02-21T13:25:56;11.10;99.90
31133;DHT22;17779;50.942;4.026;2024-02-21T13:28:22;11.00;99.90
31133;DHT22;17779;50.942;4.026;2024-02-21T13:30:47;10.80;99.90
31133;DHT22;17779;50.942;4.026;2024-02-21T13:33:13;10.60;99.90
31133;DHT22;17779;50.942;4.026;2024-02-21T13:35:39;10.60;99.90
31133;DHT22;17779;50.942;4.026;2024-02-21T13:38:04;10.50;99.90
31133;DHT22;17779;50.942;4.026;2024-02-21T13:40:30;10.40;99.90
31133;DHT22;17779;50.942;4.026;2024-02-21T13:42:55;10.30;99.90
31133;DHT22;17779;50.942;4.026;2024-02-21T13:45:21;10.30;99.90
31133;DHT22;17779;50.942;4.026;2024-02-21T13:47:47;10.20;99.90
31133;DHT22;17779;50.942;4.026;2024-02-21T13:50:13;10.20;99.90
31133;DHT22;17779;50.942;4.026;2024-02-21T13:52:40;10.20;99.90
31133;DHT22;17779;50.942;4.026;2024-02-21T13:55:05;10.20;99.90
31133;DHT22;17779;50.942;4.026;2024-02-21T13:57:34;10.20;99.90
31133;DHT22;17779;50.942;4.026;2024-02-21T14:00:00;10.10;99.90
31133;DHT22;17779;50.942;4.026;2024-02-21T14:02:25;10.10;99.90
31133;DHT22;17779;50.942;4.026;2024-02-21T14:04:51;10.10;99.90
31133;DHT22;17779;50.942;4.026;2024-02-21T14:07:16;10.00;99.90
31133;DHT22;17779;50.942;4.026;2024-02-21T14:09:42;10.00;99.90
31133;DHT22;17779;50.942;4.026;2024-02-21T14:12:08;10.00;99.90
31133;DHT22;17779;50.942;4.026;2024-02-21T14:14:34;9.90;99.90
31133;DHT22;17779;50.942;4.026;2024-02-21T14:17:01;9.90;99.90
31133;DHT22;17779;50.942;4.026;2024-02-21T14:19:26;9.80;99.90
31133;DHT22;17779;50.942;4.026;2024-02-21T14:21:52;9.80;99.90
31133;DHT22;17779;50.942;4.026;2024-02-21T14:24:18;9.80;99.90
31133;DHT22;17779;50.942;4.026;2024-02-21T14:26:43;9.80;99.90
31133;DHT22;17779;50.942;4.026;2024-02-21T14:29:09;9.70;99.90
31133;DHT22;17779;50.942;4.026;2024-02-21T14:31:35;9.80;99.90
31133;DHT22;17779;50.942;4.026;2024-02-21T14:34:00;9.70;99.90
31133;DHT22;17779;50.942;4.026;2024-02-21T14:36:27;9.80;99.90
31133;DHT22;17779;50.942;4.026;2024-02-21T14:38:53;9.80;99.90
31133;DHT22;17779;50.942;4.026;2024-02-21T14:41:18;9.70;99.90
31133;DHT22;17779;50.942;4.026;2024-02-21T14:43:45;9.70;99.90
31133;DHT22;17779;50.942;4.026;2024-02-21T14:46:11;9.70;99.90
31133;DHT22;17779;50.942;4.026;2024-02-21T14:48:37;9.60;99.90
31133;DHT22;17779;50.942;4.026;2024-02-21T14:51:03;9.70;99.90
31133;DHT22;17779;50.942;4.026;2024-02-21T14:53:29;9.60;99.90
31133;DHT22;17779;50.942;4.026;2024-02-21T14:55:55;9.60;99.90
31133;DHT22;17779;50.942;4.026;2024-02-21T14:58:23;9.60;99.90
31133;DHT22;17779;50.942;4.026;2024-02-21T15:00:49;9.50;99.90
31133;DHT22;17779;50.942;4.026;2024-02-21T15:03:18;9.60;99.90
31133;DHT22;17779;50.942;4.026;2024-02-21T15:05:47;9.50;99.90
31133;DHT22;17779;50.942;4.026;2024-02-21T15:08:12;9.50;99.90
31133;DHT22;17779;50.942;4.026;2024-02-21T15:10:42;9.50;99.90
31133;DHT22;17779;50.942;4.026;2024-02-21T15:13:08;9.60;99.90
31133;DHT22;17779;50.942;4.026;2024-02-21T15:15:34;9.50;99.90
31133;DHT22;17779;50.942;4.026;2024-02-21T15:18:00;9.50;99.90
31133;DHT22;17779;50.942;4.026;2024-02-21T15:20:25;9.50;99.90
31133;DHT22;17779;50.942;4.026;2024-02-21T15:22:53;9.50;99.90
31133;DHT22;17779;50.942;4.026;2024-02-21T15:25:19;9.60;99.90
31133;DHT22;17779;50.942;4.026;2024-02-21T15:27:44;9.50;99.90
31133;DHT22;17779;50.942;4.026;2024-02-21T15:30:10;9.50;99.90
31133;DHT22;17779;50.942;4.026;2024-02-21T15:32:37;9.50;99.90
31133;DHT22;17779;50.942;4.026;2024-02-21T15:35:06;9.40;99.90
31133;DHT22;17779;50.942;4.026;2024-02-21T15:37:32;9.40;99.90
31133;DHT22;17779;50.942;4.026;2024-02-21T15:39:58;9.50;99.90
31133;DHT22;17779;50.942;4.026;2024-02-21T15:42:23;9.40;99.90
31133;DHT22;17779;50.942;4.026;2024-02-21T15:44:49;9.40;99.90